Time;durP1;ratioP1;P1;durP2;ratioP2;P2;SDS_P1;SDS_P2;PMS_P1;PMS_P2;Temp;Humidity;BMP_temperature;BMP_pressure;BME280_temperature;BME280_humidity;BME280_pressure;Samples;Min_cycle;Max_cycle;Signal;HPM_P1;HPM_P2
2023/12/15 00:01:15;;;;;;;5.87;3.50;;;;;;;7.39;73.55;100763.38;4995554;28;20809;-78
2023/12/15 00:03:40;;;;;;;15.30;4.77;;;;;;;7.37;73.35;100765.16;4997165;28;20203;-78
2023/12/15 00:06:06;;;;;;;9.03;4.90;;;;;;;7.36;73.62;100771.31;4999492;28;20191;-78
2023/12/15 00:08:31;;;;;;;9.63;5.23;;;;;;;7.37;73.56;100765.16;4996350;28;20756;-78
2023/12/15 00:10:56;;;;;;;9.33;6.60;;;;;;;7.40;73.68;100770.28;4996100;28;20211;-79
2023/12/15 00:13:22;;;;;;;9.07;5.90;;;;;;;7.43;73.64;100770.22;4997674;28;20570;-78
2023/12/15 00:15:47;;;;;;;11.17;4.73;;;;;;;7.43;73.71;100770.22;4998400;28;20341;-78
2023/12/15 00:18:13;;;;;;;7.43;4.40;;;;;;;7.45;73.68;100774.50;5000742;28;20210;-78
2023/12/15 00:20:38;;;;;;;8.43;5.57;;;;;;;7.47;73.74;100771.81;4995521;28;20605;-79
2023/12/15 00:23:03;;;;;;;6.70;4.93;;;;;;;7.49;73.87;100780.47;4995715;28;20367;-80
2023/12/15 00:25:29;;;;;;;10.67;5.53;;;;;;;7.50;73.66;100779.56;4995989;28;20529;-79
2023/12/15 00:27:54;;;;;;;7.63;3.83;;;;;;;7.52;73.76;100790.81;4997869;28;20206;-79
2023/12/15 00:30:19;;;;;;;4.83;4.10;;;;;;;7.54;73.68;100786.41;4998518;28;20752;-77
2023/12/15 00:32:45;;;;;;;5.00;3.73;;;;;;;7.51;73.65;100794.34;5003706;28;20824;-77
2023/12/15 00:35:10;;;;;;;6.37;4.00;;;;;;;7.48;73.85;100791.81;5000335;28;20711;-77
2023/12/15 00:37:36;;;;;;;7.10;3.53;;;;;;;7.47;73.74;100792.72;4997687;28;20195;-77
2023/12/15 00:40:01;;;;;;;5.97;3.27;;;;;;;7.41;73.66;100787.69;5004425;28;20210;-77
2023/12/15 00:42:27;;;;;;;5.30;3.73;;;;;;;7.36;74.06;100790.44;5000692;28;20678;-77
2023/12/15 00:44:54;;;;;;;8.20;4.70;;;;;;;7.34;74.28;100786.19;5001313;28;20222;-77
2023/12/15 00:47:19;;;;;;;6.30;3.97;;;;;;;7.31;74.15;100794.97;4999413;28;21320;-77
2023/12/15 00:49:45;;;;;;;7.20;3.80;;;;;;;7.27;74.47;100802.06;5002985;28;20226;-77
2023/12/15 00:52:11;;;;;;;6.10;4.30;;;;;;;7.27;74.46;100807.28;4998990;28;20415;-77
2023/12/15 00:54:36;;;;;;;4.13;3.37;;;;;;;7.24;74.81;100804.75;5002369;28;20187;-77
2023/12/15 00:57:02;;;;;;;8.93;4.97;;;;;;;7.26;74.57;100810.81;4998624;28;20940;-77
2023/12/15 00:59:27;;;;;;;4.50;3.63;;;;;;;7.29;74.61;100817.66;5002042;28;20261;-77
2023/12/15 01:01:52;;;;;;;7.57;4.23;;;;;;;7.29;74.60;100820.28;5002535;28;20194;-77
2023/12/15 01:04:18;;;;;;;4.47;3.50;;;;;;;7.28;74.57;100816.81;5001468;28;20226;-77
2023/12/15 01:06:44;;;;;;;7.03;4.20;;;;;;;7.27;74.76;100822.97;4999339;28;20196;-77
2023/12/15 01:09:09;;;;;;;5.70;3.40;;;;;;;7.28;74.69;100826.44;5000076;28;20225;-77
2023/12/15 01:11:34;;;;;;;4.80;3.47;;;;;;;7.27;74.56;100836.03;4997844;28;21376;-77
2023/12/15 01:14:00;;;;;;;9.10;4.57;;;;;;;7.28;74.57;100829.88;4999183;28;20211;-78
2023/12/15 01:16:26;;;;;;;4.40;4.00;;;;;;;7.28;74.63;100840.34;5006033;28;20202;-77
2023/12/15 01:18:51;;;;;;;7.40;3.60;;;;;;;7.26;74.65;100842.16;5007704;28;20195;-78
2023/12/15 01:21:16;;;;;;;5.40;3.70;;;;;;;7.20;74.75;100852.78;5005129;28;20210;-77
2023/12/15 01:23:42;;;;;;;9.23;4.50;;;;;;;7.13;74.77;100840.81;5002935;28;20194;-78
2023/12/15 01:26:07;;;;;;;6.13;4.37;;;;;;;7.07;74.98;100843.59;5002466;28;20703;-78
2023/12/15 01:28:32;;;;;;;4.43;3.33;;;;;;;7.02;74.94;100848.97;5006350;28;20218;-78
2023/12/15 01:31:01;;;;;;;7.00;4.30;;;;;;;7.01;75.39;100851.63;5002853;28;20195;-77
2023/12/15 01:33:27;;;;;;;5.32;4.28;;;;;;;7.01;75.06;100852.47;5000865;28;20202;-78
2023/12/15 01:35:52;;;;;;;5.40;3.63;;;;;;;6.99;75.50;100862.09;4999953;28;20282;-77
2023/12/15 01:38:18;;;;;;;4.70;3.40;;;;;;;7.00;75.61;100868.22;5001614;28;20509;-77
2023/12/15 01:40:43;;;;;;;4.60;3.93;;;;;;;6.99;75.47;100866.47;5002123;28;20823;-78
2023/12/15 01:43:09;;;;;;;6.80;3.50;;;;;;;7.01;75.57;100875.13;5002668;28;20207;-77
2023/12/15 01:45:34;;;;;;;4.70;3.40;;;;;;;7.02;75.45;100876.84;5000698;28;20254;-77
2023/12/15 01:48:00;;;;;;;5.53;4.10;;;;;;;7.05;75.48;100879.38;5005187;28;20289;-77
2023/12/15 01:50:25;;;;;;;4.73;2.70;;;;;;;7.04;75.17;100881.13;5002537;28;20256;-78
2023/12/15 01:52:51;;;;;;;8.03;3.77;;;;;;;7.00;75.12;100883.88;5002309;28;20297;-77
2023/12/15 01:55:16;;;;;;;6.30;3.70;;;;;;;6.95;75.46;100878.78;5001802;28;20223;-77
2023/12/15 01:57:43;;;;;;;5.90;3.63;;;;;;;6.95;75.40;100886.63;5003372;28;20229;-77
2023/12/15 02:00:09;;;;;;;7.28;4.85;;;;;;;6.96;75.77;100885.69;5005041;28;20234;-77
2023/12/15 02:02:37;;;;;;;5.35;4.20;;;;;;;6.99;75.59;100888.22;5002063;28;20264;-78
2023/12/15 02:05:02;;;;;;;5.07;3.30;;;;;;;7.00;75.52;100891.72;5000672;28;20249;-77
2023/12/15 02:07:28;;;;;;;4.13;2.97;;;;;;;7.00;75.48;100883.88;5003442;28;20733;-77
2023/12/15 02:09:55;;;;;;;5.20;3.80;;;;;;;6.99;75.73;100885.59;5003782;28;20206;-77
2023/12/15 02:12:21;;;;;;;3.97;3.55;;;;;;;6.99;75.42;100892.59;4999085;28;20207;-77
2023/12/15 02:14:46;;;;;;;4.03;3.70;;;;;;;6.98;75.70;100901.34;5001438;28;20198;-77
2023/12/15 02:17:12;;;;;;;5.03;4.43;;;;;;;6.98;75.51;100906.56;4999120;28;20695;-77
2023/12/15 02:19:38;;;;;;;5.88;4.18;;;;;;;6.99;75.78;100909.13;5001425;28;20660;-77
2023/12/15 02:22:04;;;;;;;3.80;3.00;;;;;;;6.98;75.86;100917.88;4999434;28;21058;-78
2023/12/15 02:24:30;;;;;;;3.73;3.30;;;;;;;6.99;75.65;100916.09;5002209;28;20199;-77
2023/12/15 02:26:56;;;;;;;6.40;4.43;;;;;;;6.97;75.81;100912.72;4993541;28;20695;-77
2023/12/15 02:29:21;;;;;;;5.50;4.40;;;;;;;6.94;75.87;100924.09;4997475;28;20798;-77
2023/12/15 02:31:46;;;;;;;5.03;3.30;;;;;;;6.86;75.82;100913.00;4996464;28;20454;-77
2023/12/15 02:34:12;;;;;;;6.90;4.53;;;;;;;6.78;76.04;100921.03;5001216;28;20225;-78
2023/12/15 02:36:37;;;;;;;5.40;3.73;;;;;;;6.72;76.32;100930.78;4996942;28;20544;-77
2023/12/15 02:39:03;;;;;;;6.10;5.50;;;;;;;6.70;76.59;100928.22;4997953;28;20461;-77
2023/12/15 02:41:32;;;;;;;7.07;4.40;;;;;;;6.71;77.13;100927.31;5019813;28;21314;-78
2023/12/15 02:43:58;;;;;;;5.15;4.00;;;;;;;6.76;77.38;100933.28;5001949;28;20199;-78
2023/12/15 02:46:23;;;;;;;6.90;3.70;;;;;;;6.80;77.21;100934.88;4998443;28;20547;-77
2023/12/15 02:48:49;;;;;;;4.50;3.40;;;;;;;6.81;76.82;100944.47;4999682;28;20929;-77
2023/12/15 02:51:30;;;;;;;5.40;4.10;;;;;;;6.79;76.70;100941.03;5000789;28;20302;-77
2023/12/15 02:54:00;;;;;;;8.68;4.05;;;;;;;6.81;77.04;100943.59;5001976;28;20620;-78
2023/12/15 02:56:26;;;;;;;5.22;3.92;;;;;;;6.84;76.80;100938.28;4999545;28;20205;-77
2023/12/15 02:58:51;;;;;;;8.37;4.20;;;;;;;6.85;76.55;100945.22;5001478;28;20225;-77
2023/12/15 03:01:16;;;;;;;6.67;3.70;;;;;;;6.86;76.49;100954.78;5002809;28;20199;-78
2023/12/15 03:03:42;;;;;;;5.00;3.80;;;;;;;6.85;76.69;100956.53;5001128;28;20343;-77
2023/12/15 03:06:07;;;;;;;6.00;3.20;;;;;;;6.86;76.17;100960.88;4997925;28;20219;-77
2023/12/15 03:08:33;;;;;;;3.30;2.90;;;;;;;6.89;76.42;100964.31;4998959;28;20225;-77
2023/12/15 03:10:58;;;;;;;5.47;3.90;;;;;;;6.90;76.43;100959.00;5000324;28;20257;-77
2023/12/15 03:13:25;;;;;;;4.77;2.97;;;;;;;6.92;76.30;100956.38;5000152;28;20305;-78
2023/12/15 03:15:51;;;;;;;3.33;2.95;;;;;;;6.94;76.13;100958.06;4997706;28;20910;-77
2023/12/15 03:18:17;;;;;;;6.03;2.53;;;;;;;6.97;76.10;100954.50;4998289;28;20191;-77
2023/12/15 03:20:44;;;;;;;4.50;2.83;;;;;;;6.99;75.93;100963.13;4999181;28;20841;-78
2023/12/15 03:23:09;;;;;;;3.95;3.00;;;;;;;6.99;75.88;100974.44;5000875;28;20705;-77
2023/12/15 03:25:34;;;;;;;4.10;2.63;;;;;;;7.00;75.89;100975.31;5000815;28;20194;-77
2023/12/15 03:28:00;;;;;;;4.23;2.67;;;;;;;6.99;75.74;100982.25;4999788;28;20199;-77
2023/12/15 03:30:26;;;;;;;2.93;2.13;;;;;;;7.00;75.73;100980.53;4998005;28;20769;-77
2023/12/15 03:32:51;;;;;;;4.53;3.13;;;;;;;7.02;75.71;100978.72;4999166;28;20273;-77
2023/12/15 03:35:17;;;;;;;4.90;2.70;;;;;;;7.03;75.72;100980.44;5001139;28;20460;-77
2023/12/15 03:37:43;;;;;;;4.30;3.00;;;;;;;7.02;75.46;100974.38;4999982;28;20864;-77
2023/12/15 03:40:09;;;;;;;4.20;3.40;;;;;;;7.00;75.47;100975.31;5000598;28;20377;-77
2023/12/15 03:42:34;;;;;;;3.92;3.05;;;;;;;6.97;75.52;100981.47;5000616;28;20227;-77
2023/12/15 03:45:00;;;;;;;6.40;4.00;;;;;;;6.97;75.44;100980.63;4999162;28;20301;-78
2023/12/15 03:47:25;;;;;;;6.70;3.20;;;;;;;6.94;75.22;100986.78;4998718;28;20199;-77
2023/12/15 03:49:50;;;;;;;2.63;2.40;;;;;;;6.93;75.48;100984.19;5001982;28;20221;-77
2023/12/15 03:52:16;;;;;;;4.10;2.50;;;;;;;6.95;75.44;100987.63;4998924;28;20303;-77
2023/12/15 03:54:41;;;;;;;3.80;2.47;;;;;;;6.97;75.45;100991.06;4999647;28;20690;-77
2023/12/15 03:57:06;;;;;;;6.10;3.50;;;;;;;6.98;75.60;100988.41;5000246;28;20202;-77
2023/12/15 03:59:32;;;;;;;6.07;3.93;;;;;;;7.01;75.40;101003.13;5002901;28;20209;-77
2023/12/15 04:01:57;;;;;;;4.40;2.93;;;;;;;7.03;75.87;100996.13;4998533;28;20871;-77
2023/12/15 04:04:22;;;;;;;5.13;3.87;;;;;;;7.05;75.74;101002.19;4999693;28;20206;-77
2023/12/15 04:06:48;;;;;;;6.43;4.53;;;;;;;7.05;75.24;100996.94;4999036;28;20228;-77
2023/12/15 04:09:13;;;;;;;6.70;4.30;;;;;;;7.06;75.39;101002.13;4997133;28;20444;-77
2023/12/15 04:11:39;;;;;;;8.60;4.73;;;;;;;7.05;75.73;101010.00;4998615;28;20274;-77
2023/12/15 04:14:05;;;;;;;4.60;3.23;;;;;;;7.04;75.83;101014.34;5001649;28;20435;-77
2023/12/15 04:16:31;;;;;;;5.05;2.90;;;;;;;7.02;75.59;101010.94;4995655;28;20718;-78
2023/12/15 04:18:58;;;;;;;6.13;3.30;;;;;;;7.03;75.78;101019.63;4998951;28;20198;-77
2023/12/15 04:21:24;;;;;;;3.92;2.67;;;;;;;7.01;75.58;101029.25;4995646;28;20842;-77
2023/12/15 04:23:50;;;;;;;3.90;3.10;;;;;;;7.00;75.76;101023.19;4994583;28;20187;-77
2023/12/15 04:26:16;;;;;;;4.03;3.47;;;;;;;7.01;75.65;101024.03;4998052;28;20837;-77
2023/12/15 04:28:41;;;;;;;4.37;3.00;;;;;;;7.01;75.66;101019.66;5002693;28;20214;-77
2023/12/15 04:31:11;;;;;;;5.17;3.30;;;;;;;7.00;75.58;101012.75;5002845;28;20441;-77
2023/12/15 04:33:36;;;;;;;3.58;2.67;;;;;;;6.99;75.62;101020.59;5000039;28;20199;-77
2023/12/15 04:36:02;;;;;;;7.87;6.37;;;;;;;6.99;75.51;101031.06;5001454;28;20194;-77
2023/12/15 04:38:27;;;;;;;7.30;5.40;;;;;;;6.99;75.55;101037.13;5003054;28;20223;-77
2023/12/15 04:40:52;;;;;;;7.20;5.80;;;;;;;6.94;75.47;101039.03;5003100;28;20206;-77
2023/12/15 04:43:18;;;;;;;8.80;6.77;;;;;;;6.89;75.82;101037.44;4999551;28;20465;-77
2023/12/15 04:45:44;;;;;;;6.70;6.00;;;;;;;6.84;75.85;101034.94;4999822;28;20198;-77
2023/12/15 04:48:09;;;;;;;5.57;4.50;;;;;;;6.77;75.94;101034.22;5004029;28;20293;-77
2023/12/15 04:50:34;;;;;;;8.10;5.30;;;;;;;6.71;76.26;101039.59;5003899;28;20480;-77
2023/12/15 04:53:00;;;;;;;7.13;3.80;;;;;;;6.68;76.40;101042.28;5006634;28;20300;-77
2023/12/15 04:55:25;;;;;;;5.53;2.83;;;;;;;6.65;76.52;101042.34;5002762;28;20202;-77
2023/12/15 04:57:50;;;;;;;4.17;3.07;;;;;;;6.65;76.63;101042.34;5007307;28;20571;-77
2023/12/15 05:00:16;;;;;;;5.07;3.07;;;;;;;6.64;76.37;101041.50;5006429;28;20209;-77
2023/12/15 05:02:41;;;;;;;4.63;4.23;;;;;;;6.67;76.16;101047.53;5001830;28;20536;-77
2023/12/15 05:05:07;;;;;;;5.73;3.50;;;;;;;6.69;76.50;101050.97;5004108;28;20203;-77
2023/12/15 05:07:33;;;;;;;6.93;3.90;;;;;;;6.73;76.71;101063.06;5005063;28;20433;-77
2023/12/15 05:09:58;;;;;;;4.07;3.20;;;;;;;6.75;76.27;101061.25;5006036;28;20620;-77
2023/12/15 05:12:24;;;;;;;6.47;3.50;;;;;;;6.76;76.28;101058.63;5003740;28;20206;-77
2023/12/15 05:14:49;;;;;;;5.40;4.20;;;;;;;6.77;76.57;101060.31;5003214;28;20191;-77
2023/12/15 05:17:15;;;;;;;4.70;3.73;;;;;;;6.78;76.48;101056.84;5006042;28;20543;-77
2023/12/15 05:19:40;;;;;;;5.53;3.87;;;;;;;6.77;76.27;101060.31;5005266;28;20233;-77
2023/12/15 05:22:05;;;;;;;8.47;6.20;;;;;;;6.78;76.51;101064.66;5005116;28;20199;-77
2023/12/15 05:24:34;;;;;;;9.10;5.80;;;;;;;6.76;76.28;101073.44;5006868;28;20199;-77
2023/12/15 05:26:59;;;;;;;6.55;4.70;;;;;;;6.72;76.18;101074.38;5004507;28;20451;-77
2023/12/15 05:29:25;;;;;;;7.93;3.93;;;;;;;6.71;76.45;101081.38;4997452;28;20726;-77
2023/12/15 05:31:50;;;;;;;7.37;5.00;;;;;;;6.73;76.66;101091.78;4987244;28;20218;-77
2023/12/15 05:34:15;;;;;;;6.23;4.00;;;;;;;6.75;76.92;101093.47;4985419;28;20209;-77
2023/12/15 05:36:41;;;;;;;5.30;4.50;;;;;;;6.77;76.64;101094.28;4985337;28;20774;-77
2023/12/15 05:39:07;;;;;;;7.03;5.20;;;;;;;6.80;76.68;101111.63;4988478;28;20259;-77
2023/12/15 05:41:32;;;;;;;6.35;5.75;;;;;;;6.82;76.81;101117.69;4987899;28;20211;-77
2023/12/15 05:43:58;;;;;;;4.70;4.20;;;;;;;6.83;76.57;101115.03;4989758;28;20207;-77
2023/12/15 05:46:23;;;;;;;5.10;3.80;;;;;;;6.83;76.56;101122.00;4989220;28;21107;-77
2023/12/15 05:48:48;;;;;;;4.03;3.40;;;;;;;6.84;76.38;101121.97;4989947;28;20699;-77
2023/12/15 05:51:14;;;;;;;6.80;3.20;;;;;;;6.83;76.36;101129.81;4989789;28;20255;-77
2023/12/15 05:53:39;;;;;;;5.60;3.83;;;;;;;6.80;76.46;101133.38;4989105;28;20198;-76
2023/12/15 05:56:05;;;;;;;6.80;4.00;;;;;;;6.79;76.32;101128.19;4990716;28;20245;-77
2023/12/15 05:58:31;;;;;;;6.68;3.88;;;;;;;6.74;76.33;101133.53;4989244;28;20663;-77
2023/12/15 06:00:56;;;;;;;4.93;2.80;;;;;;;6.72;76.71;101145.75;4986593;28;20191;-78
2023/12/15 06:03:21;;;;;;;9.70;4.80;;;;;;;6.71;76.48;101146.66;4989931;28;20203;-80
2023/12/15 06:05:47;;;;;;;4.80;3.90;;;;;;;6.70;76.46;101147.56;4989371;28;20207;-79
2023/12/15 06:08:13;;;;;;;6.50;4.93;;;;;;;6.65;76.92;101157.25;4982671;28;20447;-80
2023/12/15 06:10:40;;;;;;;4.95;4.45;;;;;;;6.62;77.06;101168.63;4978299;28;20369;-79
2023/12/15 06:13:06;;;;;;;7.07;5.20;;;;;;;6.61;77.03;101166.88;4977855;28;20824;-80
2023/12/15 06:15:31;;;;;;;7.80;4.20;;;;;;;6.61;77.27;101166.03;4977550;28;20199;-80
2023/12/15 06:17:57;;;;;;;4.80;3.80;;;;;;;6.62;77.01;101167.75;4978041;28;20409;-80
2023/12/15 06:20:22;;;;;;;5.83;3.83;;;;;;;6.61;77.25;101176.47;4983952;28;20278;-79
2023/12/15 06:22:47;;;;;;;6.13;4.10;;;;;;;6.60;77.04;101174.75;4984823;28;20203;-80
2023/12/15 06:25:13;;;;;;;7.83;4.50;;;;;;;6.61;77.15;101179.94;4988800;28;20210;-80
2023/12/15 06:27:38;;;;;;;4.20;3.27;;;;;;;6.61;76.90;101190.38;4988913;28;20199;-80
2023/12/15 06:30:04;;;;;;;5.83;3.63;;;;;;;6.61;77.08;101186.91;4994555;28;20523;-78
2023/12/15 06:32:30;;;;;;;8.15;3.22;;;;;;;6.59;77.12;101183.50;4998341;28;20810;-77
2023/12/15 06:34:55;;;;;;;5.57;3.90;;;;;;;6.56;77.27;101194.88;4998397;28;20286;-77
2023/12/15 06:37:20;;;;;;;5.00;3.60;;;;;;;6.55;76.94;101200.09;4997707;28;20596;-78
2023/12/15 06:39:47;;;;;;;4.70;3.37;;;;;;;6.56;77.10;101199.19;5000459;28;20210;-77
2023/12/15 06:42:12;;;;;;;7.55;3.50;;;;;;;6.57;77.07;101204.41;4997338;28;20190;-77
2023/12/15 06:44:39;;;;;;;6.00;3.50;;;;;;;6.59;77.28;101217.44;4999747;28;20673;-79
2023/12/15 06:47:05;;;;;;;7.07;3.65;;;;;;;6.61;77.45;101213.88;4998583;28;20261;-78
2023/12/15 06:49:30;;;;;;;5.67;4.60;;;;;;;6.60;77.01;101217.38;4996714;28;20207;-77
2023/12/15 06:51:59;;;;;;;6.30;5.50;;;;;;;6.60;77.12;101217.38;4995966;28;20202;-78
2023/12/15 06:54:25;;;;;;;9.70;7.47;;;;;;;6.60;77.39;101226.97;5001737;28;20230;-79
2023/12/15 06:56:51;;;;;;;12.30;5.37;;;;;;;6.61;77.11;101241.75;4999222;28;20320;-78
2023/12/15 06:59:16;;;;;;;7.37;4.83;;;;;;;6.59;77.25;101243.56;4993430;28;20686;-78
2023/12/15 07:01:42;;;;;;;7.60;4.20;;;;;;;6.58;77.30;101250.50;4990194;28;20194;-77
2023/12/15 07:04:07;;;;;;;5.17;3.63;;;;;;;6.58;77.27;101247.03;4994397;28;20758;-79
2023/12/15 07:06:32;;;;;;;6.03;4.40;;;;;;;6.59;77.15;101254.00;4993977;28;20275;-79
2023/12/15 07:08:58;;;;;;;6.70;3.90;;;;;;;6.57;77.43;101247.94;4996307;28;20454;-78
2023/12/15 07:11:24;;;;;;;5.20;3.90;;;;;;;6.55;77.52;101250.56;4996505;28;20418;-79
2023/12/15 07:13:49;;;;;;;4.80;3.73;;;;;;;6.56;77.44;101259.25;4990538;28;20939;-77
2023/12/15 07:16:15;;;;;;;5.50;5.00;;;;;;;6.54;77.27;101261.06;4993485;28;20206;-79
2023/12/15 07:18:41;;;;;;;6.53;4.37;;;;;;;6.54;77.41;101261.06;4995585;28;20206;-76
2023/12/15 07:21:07;;;;;;;6.88;4.65;;;;;;;6.56;77.67;101264.47;4992070;28;20195;-77
2023/12/15 07:23:33;;;;;;;6.83;3.80;;;;;;;6.59;77.68;101267.03;4994325;28;20221;-78
2023/12/15 07:25:59;;;;;;;5.47;4.88;;;;;;;6.61;77.34;101263.47;4996416;28;20191;-78
2023/12/15 07:28:24;;;;;;;5.30;4.50;;;;;;;6.62;77.50;101265.22;4992880;28;20215;-78
2023/12/15 07:30:50;;;;;;;11.47;5.33;;;;;;;6.62;77.03;101261.75;4995825;28;20580;-78
2023/12/15 07:33:16;;;;;;;11.30;5.33;;;;;;;6.61;77.22;101263.47;4996163;28;20539;-78
2023/12/15 07:35:41;;;;;;;7.60;4.90;;;;;;;6.62;77.50;101262.59;4992962;28;20201;-78
2023/12/15 07:38:08;;;;;;;7.83;4.57;;;;;;;6.63;77.54;101271.31;4993175;28;20356;-78
2023/12/15 07:40:33;;;;;;;8.38;6.43;;;;;;;6.65;77.24;101278.22;5001032;28;20218;-77
2023/12/15 07:42:58;;;;;;;8.47;6.17;;;;;;;6.70;77.37;101279.84;4997128;28;20199;-78
2023/12/15 07:45:24;;;;;;;7.40;6.70;;;;;;;6.74;77.15;101286.75;4994508;28;21115;-77
2023/12/15 07:47:50;;;;;;;5.25;4.57;;;;;;;6.78;77.65;101288.41;4994258;28;20207;-77
2023/12/15 07:50:15;;;;;;;6.87;5.20;;;;;;;6.83;77.54;101292.66;4994523;28;20222;-78
2023/12/15 07:52:41;;;;;;;6.67;6.10;;;;;;;6.86;77.22;101300.41;4996044;28;20203;-78
2023/12/15 07:55:07;;;;;;;10.60;6.00;;;;;;;6.90;76.83;101297.72;4992007;28;20205;-78
2023/12/15 07:57:33;;;;;;;10.25;5.55;;;;;;;6.90;76.72;101292.50;4995402;28;20195;-78
2023/12/15 07:59:58;;;;;;;10.57;5.73;;;;;;;6.91;76.88;101295.06;4994577;28;20203;-77
2023/12/15 08:02:23;;;;;;;7.53;5.60;;;;;;;6.96;76.79;101308.03;4994724;28;20985;-78
2023/12/15 08:04:49;;;;;;;7.70;5.40;;;;;;;6.99;77.04;101306.22;4997068;28;20199;-77
2023/12/15 08:07:14;;;;;;;6.73;5.60;;;;;;;7.02;76.74;101307.91;4993133;28;20382;-78
2023/12/15 08:09:40;;;;;;;7.37;5.03;;;;;;;7.07;76.70;101311.28;4994596;28;20229;-78
2023/12/15 08:12:05;;;;;;;8.20;5.77;;;;;;;7.10;76.84;101303.38;4993157;28;20198;-78
2023/12/15 08:14:31;;;;;;;7.20;5.20;;;;;;;7.14;76.68;101301.56;4994390;28;20638;-78
2023/12/15 08:16:56;;;;;;;8.90;6.10;;;;;;;7.18;76.44;101314.50;4983898;28;20214;-79
2023/12/15 08:19:22;;;;;;;12.23;6.27;;;;;;;7.20;76.29;101317.94;4986636;28;20799;-77
2023/12/15 08:21:51;;;;;;;10.83;6.00;;;;;;;7.21;76.27;101319.69;4986040;28;20229;-78
2023/12/15 08:24:17;;;;;;;6.65;5.57;;;;;;;7.23;76.44;101327.47;4988601;28;20225;-78
2023/12/15 08:26:42;;;;;;;6.57;4.83;;;;;;;7.24;76.21;101335.31;4989032;28;20208;-77
2023/12/15 08:29:14;;;;;;;8.80;5.13;;;;;;;7.24;76.07;101344.91;4993419;28;20557;-78
2023/12/15 08:31:39;;;;;;;5.45;4.82;;;;;;;7.27;76.05;101342.22;4991497;28;20207;-77
2023/12/15 08:34:04;;;;;;;6.20;5.03;;;;;;;7.27;76.25;101350.91;4996894;28;20944;-78
2023/12/15 08:36:30;;;;;;;8.10;5.10;;;;;;;7.29;76.05;101349.13;4995223;28;20214;-78
2023/12/15 08:38:55;;;;;;;6.87;5.67;;;;;;;7.32;76.20;101354.28;4993439;28;20218;-78
2023/12/15 08:41:20;;;;;;;9.30;5.20;;;;;;;7.36;76.23;101359.44;4996662;28;20561;-78
2023/12/15 08:43:46;;;;;;;6.70;4.90;;;;;;;7.37;75.74;101366.38;4998432;28;20302;-78
2023/12/15 08:46:11;;;;;;;6.90;5.37;;;;;;;7.30;75.56;101365.66;4994640;28;20198;-78
2023/12/15 08:48:37;;;;;;;8.57;5.80;;;;;;;7.26;75.56;101375.34;4994810;28;20690;-77
2023/12/15 08:51:02;;;;;;;8.50;5.70;;;;;;;7.24;76.01;101374.50;4997230;28;20198;-77
2023/12/15 08:53:28;;;;;;;8.10;5.93;;;;;;;7.23;75.80;101380.59;4997516;28;20209;-77
2023/12/15 08:55:53;;;;;;;8.63;6.90;;;;;;;7.21;75.73;101376.31;4994011;28;20199;-77
2023/12/15 08:58:21;;;;;;;9.60;6.77;;;;;;;7.22;75.69;101375.44;5002069;28;20700;-76
2023/12/15 09:00:47;;;;;;;9.02;6.38;;;;;;;7.21;75.64;101378.91;4995033;28;21593;-76
2023/12/15 09:03:12;;;;;;;8.40;6.30;;;;;;;7.22;75.60;101383.28;4996016;28;20203;-76
2023/12/15 09:05:38;;;;;;;6.53;5.87;;;;;;;7.22;75.78;101384.13;4995284;28;20201;-75
2023/12/15 09:08:03;;;;;;;9.13;6.20;;;;;;;7.25;75.84;101384.06;5000267;28;20207;-77
2023/12/15 09:10:33;;;;;;;7.70;6.10;;;;;;;7.28;75.67;101388.34;4995654;28;20977;-76
2023/12/15 09:13:02;;;;;;;7.72;6.10;;;;;;;7.34;75.52;101385.59;4996291;28;20198;-76
2023/12/15 09:15:27;;;;;;;8.10;6.32;;;;;;;7.40;75.49;101384.59;4994780;28;20405;-70
2023/12/15 09:17:52;;;;;;;7.77;6.10;;;;;;;7.48;75.32;101374.84;4994402;28;20215;-70
2023/12/15 09:20:18;;;;;;;7.10;6.30;;;;;;;7.55;75.16;101373.81;4997519;28;20203;-76
2023/12/15 09:22:44;;;;;;;6.13;5.53;;;;;;;7.66;74.87;101374.41;4996512;28;20690;-75
2023/12/15 09:25:09;;;;;;;13.10;6.17;;;;;;;7.79;74.59;101368.91;4993788;28;20292;-76
2023/12/15 09:27:35;;;;;;;10.43;6.00;;;;;;;7.89;74.33;101384.34;4996848;28;20878;-76
2023/12/15 09:30:00;;;;;;;13.93;6.87;;;;;;;7.96;73.82;101383.28;5021629;23;20231;-80
2023/12/15 09:32:26;;;;;;;9.10;5.33;;;;;;;8.04;73.79;101387.50;5009057;28;20668;-80
2023/12/15 09:34:52;;;;;;;7.90;5.50;;;;;;;8.11;73.52;101395.16;5017082;28;20278;-77
2023/12/15 09:37:17;;;;;;;8.43;6.70;;;;;;;8.18;73.54;101391.50;5034417;28;20448;-78
2023/12/15 09:39:42;;;;;;;6.40;5.43;;;;;;;8.24;73.35;101398.34;5038735;28;20191;-78
2023/12/15 09:42:08;;;;;;;7.80;6.63;;;;;;;8.27;73.14;101392.16;5026227;28;20224;-78
2023/12/15 09:44:34;;;;;;;9.27;5.32;;;;;;;8.28;73.05;101405.19;5026951;28;20220;-79
2023/12/15 09:47:01;;;;;;;7.23;4.90;;;;;;;8.32;72.90;101398.16;5027697;28;20631;-79
2023/12/15 09:49:27;;;;;;;7.75;5.22;;;;;;;8.34;72.79;101399.78;5027127;28;20479;-79
2023/12/15 09:51:53;;;;;;;6.95;4.75;;;;;;;8.37;72.31;101398.84;5025483;28;20760;-80
2023/12/15 09:54:20;;;;;;;15.43;6.03;;;;;;;8.45;72.21;101401.31;5026239;28;20407;-78
2023/12/15 09:56:48;;;;;;;7.07;5.20;;;;;;;8.74;71.33;101395.31;5025145;28;20479;-79
2023/12/15 09:59:14;;;;;;;7.55;5.70;;;;;;;9.11;70.12;101386.41;5025532;28;20198;-77
2023/12/15 10:01:39;;;;;;;9.03;5.97;;;;;;;9.67;68.54;101392.56;5025733;28;20210;-78
2023/12/15 10:04:05;;;;;;;5.90;4.80;;;;;;;10.25;66.72;101394.22;5026022;28;20766;-80
2023/12/15 10:06:35;;;;;;;11.23;4.82;;;;;;;10.87;64.60;101390.31;5023895;28;20205;-80
2023/12/15 10:09:01;;;;;;;9.73;5.82;;;;;;;11.42;62.82;101391.75;5020733;28;20635;-78
2023/12/15 10:11:28;;;;;;;6.00;4.68;;;;;;;11.82;61.52;101389.31;5024529;28;20209;-80
2023/12/15 10:13:54;;;;;;;4.75;4.25;;;;;;;12.06;60.80;101395.38;5024126;28;20320;-80
2023/12/15 10:16:20;;;;;;;6.13;4.10;;;;;;;12.21;60.38;101394.75;5022563;28;20200;-80
2023/12/15 10:18:46;;;;;;;5.80;4.07;;;;;;;12.17;60.32;101407.19;5026287;28;20267;-80
2023/12/15 10:21:12;;;;;;;7.25;4.35;;;;;;;12.10;60.44;101410.16;5023405;28;20217;-80
2023/12/15 10:23:37;;;;;;;7.40;5.10;;;;;;;11.95;60.62;101414.25;5022847;28;20221;-80
2023/12/15 10:26:05;;;;;;;7.83;4.87;;;;;;;11.63;60.87;101416.34;5025904;28;20282;-80
2023/12/15 10:28:38;;;;;;;4.85;3.65;;;;;;;11.28;61.69;101415.09;5018080;28;20674;-80
2023/12/15 10:31:07;;;;;;;7.80;5.20;;;;;;;11.01;62.49;101419.59;5022708;28;20253;-77
2023/12/15 10:33:34;;;;;;;7.93;4.60;;;;;;;10.79;62.61;101420.38;5022355;28;21078;-80
2023/12/15 10:36:03;;;;;;;7.35;4.28;;;;;;;10.58;63.26;101413.22;5022975;28;20298;-80
2023/12/15 10:38:31;;;;;;;4.72;3.70;;;;;;;10.37;63.55;101413.06;5023634;28;20196;-78
2023/12/15 10:40:58;;;;;;;5.22;4.28;;;;;;;10.19;64.04;101408.41;5023456;28;20213;-80
2023/12/15 10:43:23;;;;;;;8.07;4.07;;;;;;;10.00;64.62;101410.78;5021318;28;20240;-79
2023/12/15 10:45:53;;;;;;;5.87;4.33;;;;;;;9.89;64.94;101411.13;5024184;28;20198;-81
2023/12/15 10:48:19;;;;;;;4.45;3.60;;;;;;;9.82;65.27;101416.59;5022238;28;20522;-80
2023/12/15 10:50:48;;;;;;;6.53;4.38;;;;;;;9.74;65.47;101422.09;5019982;28;20701;-78
2023/12/15 10:53:16;;;;;;;5.60;4.13;;;;;;;9.66;65.62;101429.34;5015643;28;20205;-78
2023/12/15 10:55:46;;;;;;;8.75;5.47;;;;;;;9.63;65.60;101432.06;5016179;28;20681;-81
2023/12/15 10:58:14;;;;;;;4.10;2.83;;;;;;;9.68;65.11;101424.91;5018172;28;20252;-78
2023/12/15 11:00:40;;;;;;;5.15;4.18;;;;;;;9.71;64.99;101423.03;5023082;28;20652;-81
2023/12/15 11:03:11;;;;;;;4.20;3.70;;;;;;;9.77;65.00;101435.09;5025447;28;20285;-78
2023/12/15 11:05:40;;;;;;;8.88;3.78;;;;;;;9.80;64.55;101437.63;5026472;28;20650;-81
2023/12/15 11:08:07;;;;;;;6.32;3.33;;;;;;;9.87;64.05;101444.44;5021219;28;20205;-81
2023/12/15 11:10:33;;;;;;;6.75;3.28;;;;;;;9.88;64.07;101433.03;5021899;28;20754;-80
2023/12/15 11:12:58;;;;;;;6.13;3.90;;;;;;;9.92;64.32;101434.63;5022464;28;20209;-79
2023/12/15 11:15:24;;;;;;;4.30;3.87;;;;;;;9.97;64.04;101427.47;5025184;28;20201;-80
2023/12/15 11:17:54;;;;;;;5.50;3.70;;;;;;;10.02;63.63;101421.22;5023041;28;20386;-80
2023/12/15 11:20:19;;;;;;;6.57;3.33;;;;;;;10.05;63.26;101426.38;5020705;28;20206;-81
2023/12/15 11:23:08;;;;;;;8.57;4.13;;;;;;;10.06;63.38;101423.69;5021491;28;20231;-81
2023/12/15 11:26:00;;;;;;;4.30;3.42;;;;;;;10.11;62.91;101426.19;5024394;28;20226;-78